Time;durP1;ratioP1;P1;durP2;ratioP2;P2;SDS_P1;SDS_P2;PMS_P1;PMS_P2;Temp;Humidity;BMP_temperature;BMP_pressure;BME280_temperature;BME280_humidity;BME280_pressure;Samples;Min_cycle;Max_cycle;Signal;HPM_P1;HPM_P2
2023/08/18 00:01:10;;;;;;;4.47;3.75;;;;;;;20.18;100.00;98550.94;4186386;28;20207;-48
2023/08/18 00:03:12;;;;;;;5.25;3.53;;;;;;;20.12;100.00;98550.22;4169808;28;20208;-48
2023/08/18 00:05:14;;;;;;;3.58;2.90;;;;;;;20.18;100.00;98542.63;4170130;28;20740;-49
2023/08/18 00:07:16;;;;;;;4.85;3.50;;;;;;;20.10;100.00;98538.59;4177018;28;20653;-49
2023/08/18 00:09:17;;;;;;;5.72;3.80;;;;;;;20.04;100.00;98539.81;4162973;28;20212;-51
2023/08/18 00:11:19;;;;;;;5.97;3.38;;;;;;;20.09;100.00;98541.69;4171627;28;20750;-48
2023/08/18 00:13:21;;;;;;;4.00;3.70;;;;;;;20.03;100.00;98537.34;4170638;28;20637;-49
2023/08/18 00:15:23;;;;;;;3.47;3.17;;;;;;;19.99;100.00;98541.88;4188965;28;20211;-49
2023/08/18 00:17:24;;;;;;;4.53;3.20;;;;;;;19.99;100.00;98530.78;4171605;28;20289;-50
2023/08/18 00:19:26;;;;;;;3.30;3.05;;;;;;;19.99;100.00;98533.53;4169711;28;20208;-48
2023/08/18 00:21:28;;;;;;;3.35;2.83;;;;;;;19.99;100.00;98525.22;4169609;28;20278;-52
2023/08/18 00:23:30;;;;;;;4.57;3.33;;;;;;;19.93;100.00;98529.22;4157638;28;20653;-47
2023/08/18 00:25:31;;;;;;;11.50;3.23;;;;;;;19.92;100.00;98524.81;4142663;28;1155479;-48
2023/08/18 00:27:34;;;;;;;4.72;3.20;;;;;;;19.90;100.00;98527.09;4179923;28;20841;-48
2023/08/18 00:29:36;;;;;;;5.75;3.33;;;;;;;19.89;100.00;98528.19;4169356;28;20216;-48
2023/08/18 00:31:38;;;;;;;3.67;3.08;;;;;;;19.87;100.00;98530.47;4188068;28;20211;-48
2023/08/18 00:33:40;;;;;;;3.47;2.97;;;;;;;19.85;100.00;98529.97;4170371;28;20224;-48
2023/08/18 00:35:41;;;;;;;5.95;3.95;;;;;;;19.86;100.00;98520.50;4170555;28;20623;-48
2023/08/18 00:37:48;;;;;;;6.35;4.32;;;;;;;19.86;100.00;98523.25;4173939;28;20231;-49
2023/08/18 00:39:50;;;;;;;3.10;2.90;;;;;;;19.80;100.00;98521.72;4187624;28;20203;-50
2023/08/18 00:41:51;;;;;;;3.85;3.53;;;;;;;19.83;100.00;98521.94;4172323;28;20204;-49
2023/08/18 00:43:53;;;;;;;3.90;3.50;;;;;;;19.76;100.00;98523.47;4169349;28;20231;-50
2023/08/18 00:45:55;;;;;;;3.13;2.92;;;;;;;19.77;100.00;98522.34;4187110;28;20289;-51
2023/08/18 00:47:57;;;;;;;3.67;3.38;;;;;;;19.74;100.00;98522.97;4158530;28;20323;-48
2023/08/18 00:49:59;;;;;;;4.30;3.00;;;;;;;19.75;100.00;98519.88;4155327;28;20282;-48
2023/08/18 00:52:01;;;;;;;10.95;3.28;;;;;;;19.75;100.00;98517.09;4178033;28;20217;-49
2023/08/18 00:54:04;;;;;;;5.72;3.33;;;;;;;19.72;100.00;98522.44;4170432;28;20228;-48
2023/08/18 00:56:07;;;;;;;12.23;3.13;;;;;;;19.69;100.00;98520.28;4169875;28;20295;-50
2023/08/18 00:58:09;;;;;;;3.05;2.85;;;;;;;19.65;100.00;98513.72;4187219;28;20230;-48
2023/08/18 01:00:11;;;;;;;3.35;2.67;;;;;;;19.66;100.00;98509.81;4155664;28;20213;-48
2023/08/18 01:02:13;;;;;;;3.15;2.92;;;;;;;19.62;100.00;98519.88;4166081;28;20243;-48
2023/08/18 01:04:15;;;;;;;3.50;3.30;;;;;;;19.61;100.00;98512.66;4171433;28;20705;-48
2023/08/18 01:06:16;;;;;;;3.50;3.17;;;;;;;19.56;100.00;98505.28;4177957;28;20219;-52
2023/08/18 01:08:18;;;;;;;3.40;3.10;;;;;;;19.63;100.00;98500.13;4171272;28;20208;-48
2023/08/18 01:10:21;;;;;;;4.07;3.67;;;;;;;19.55;100.00;98513.91;4170124;28;20211;-48
2023/08/18 01:12:51;;;;;;;6.70;3.08;;;;;;;19.54;100.00;98506.72;4170561;28;20247;-48
2023/08/18 01:15:09;;;;;;;3.08;2.88;;;;;;;19.50;100.00;98505.66;4168824;28;20663;-49
2023/08/18 01:17:22;;;;;;;3.47;3.17;;;;;;;19.46;100.00;98504.66;4188064;28;20214;-48
2023/08/18 01:19:25;;;;;;;8.25;4.00;;;;;;;19.47;100.00;98496.03;4184684;28;20211;-48
2023/08/18 01:21:27;;;;;;;3.17;2.88;;;;;;;19.49;100.00;98509.56;4155233;28;20271;-49
2023/08/18 01:23:41;;;;;;;4.05;3.55;;;;;;;19.53;100.00;98499.50;4154355;28;20217;-48
2023/08/18 01:25:42;;;;;;;3.45;3.25;;;;;;;19.56;100.00;98499.72;4169649;28;20211;-48
2023/08/18 01:27:44;;;;;;;5.95;3.00;;;;;;;19.40;100.00;98497.56;4169603;28;20255;-48
2023/08/18 01:29:46;;;;;;;3.75;3.45;;;;;;;19.45;100.00;98503.00;4177889;28;20768;-49
2023/08/18 01:31:50;;;;;;;3.95;3.65;;;;;;;19.37;100.00;98500.97;4177023;28;20212;-54
2023/08/18 01:33:57;;;;;;;3.63;3.28;;;;;;;19.39;100.00;98501.47;4178630;28;20675;-50
2023/08/18 01:36:04;;;;;;;5.95;3.90;;;;;;;19.38;100.00;98502.59;4189361;28;20249;-49
2023/08/18 01:38:06;;;;;;;3.53;2.63;;;;;;;19.38;100.00;98499.81;4178402;28;20681;-48
2023/08/18 01:40:10;;;;;;;3.60;3.30;;;;;;;19.36;100.00;98496.50;4162058;28;20211;-48
2023/08/18 01:42:13;;;;;;;3.15;2.95;;;;;;;19.33;100.00;98497.13;4167894;28;20215;-53
2023/08/18 01:44:16;;;;;;;3.72;3.30;;;;;;;19.32;100.00;98498.28;4178106;28;20306;-48
2023/08/18 01:46:17;;;;;;;3.13;2.85;;;;;;;19.30;100.00;98501.34;4177741;28;20203;-48
2023/08/18 01:48:19;;;;;;;4.13;3.83;;;;;;;19.25;100.00;98500.63;4169395;28;20238;-49
2023/08/18 01:50:21;;;;;;;3.13;2.78;;;;;;;19.23;100.00;98492.59;4170711;28;20215;-47
2023/08/18 01:52:23;;;;;;;4.22;3.42;;;;;;;19.23;100.00;98495.38;4171621;28;20204;-50
2023/08/18 01:54:25;;;;;;;3.30;3.00;;;;;;;19.23;100.00;98494.53;4178096;28;20231;-48
2023/08/18 01:56:26;;;;;;;5.47;3.15;;;;;;;19.24;100.00;98490.66;4167704;28;20274;-52
2023/08/18 01:58:28;;;;;;;5.15;3.00;;;;;;;19.23;100.00;98484.28;4183056;28;20227;-53
2023/08/18 02:00:30;;;;;;;3.65;2.60;;;;;;;19.18;100.00;98486.31;4167073;28;20258;-48
2023/08/18 02:02:32;;;;;;;6.50;2.83;;;;;;;19.18;100.00;98491.84;4171429;28;20592;-50
2023/08/18 02:04:34;;;;;;;3.72;2.85;;;;;;;19.14;100.00;98480.53;4165824;28;20228;-48
2023/08/18 02:06:35;;;;;;;3.80;3.38;;;;;;;19.16;100.00;98483.00;4169208;28;20211;-49
2023/08/18 02:08:37;;;;;;;3.03;2.72;;;;;;;19.10;100.00;98479.50;4169564;28;20209;-48
2023/08/18 02:10:39;;;;;;;4.30;3.50;;;;;;;19.15;100.00;98482.19;4172369;28;20239;-51
2023/08/18 02:12:41;;;;;;;2.97;2.63;;;;;;;19.12;100.00;98476.44;4179240;28;20253;-48
2023/08/18 02:14:42;;;;;;;4.65;3.53;;;;;;;19.13;100.00;98480.84;4168811;28;20288;-48
2023/08/18 02:16:44;;;;;;;6.32;2.92;;;;;;;19.08;100.00;98476.22;4160356;28;20651;-48
2023/08/18 02:18:47;;;;;;;3.65;2.90;;;;;;;19.07;100.00;98477.34;4175668;28;20231;-48
2023/08/18 02:20:59;;;;;;;4.40;2.95;;;;;;;19.06;100.00;98474.88;4167551;28;20215;-48
2023/08/18 02:23:01;;;;;;;2.80;2.55;;;;;;;19.09;100.00;98474.25;4172091;28;20287;-48
2023/08/18 02:25:05;;;;;;;2.80;2.60;;;;;;;19.08;100.00;98475.38;4152210;28;20229;-48
2023/08/18 02:27:07;;;;;;;3.92;3.03;;;;;;;19.06;100.00;98477.66;4187109;28;20247;-48
2023/08/18 02:29:09;;;;;;;2.75;2.30;;;;;;;19.02;100.00;98477.44;4151752;28;20281;-48
2023/08/18 02:31:11;;;;;;;3.03;2.78;;;;;;;19.00;100.00;98476.94;4171688;28;20199;-50
2023/08/18 02:33:13;;;;;;;13.57;2.90;;;;;;;18.96;100.00;98473.09;4172388;28;20223;-49
2023/08/18 02:35:15;;;;;;;3.20;2.60;;;;;;;19.03;100.00;98478.25;4170776;28;20228;-48
2023/08/18 02:37:17;;;;;;;6.65;2.90;;;;;;;18.96;100.00;98472.28;4169982;28;20208;-49
2023/08/18 02:39:18;;;;;;;6.68;3.53;;;;;;;18.90;100.00;98474.31;4175884;28;20223;-51
2023/08/18 02:41:20;;;;;;;8.90;2.63;;;;;;;18.88;100.00;98476.59;4170685;28;20211;-48
2023/08/18 02:43:22;;;;;;;5.05;2.20;;;;;;;18.87;100.00;98474.09;4168733;28;20212;-48
2023/08/18 02:45:24;;;;;;;6.68;3.13;;;;;;;18.85;100.00;98470.81;4168610;28;20216;-48
2023/08/18 02:47:26;;;;;;;6.80;2.72;;;;;;;18.83;100.00;98475.81;4183254;28;20289;-48
2023/08/18 02:49:28;;;;;;;7.03;2.70;;;;;;;18.84;100.00;98474.72;4184775;28;20215;-48
2023/08/18 02:51:30;;;;;;;6.90;2.30;;;;;;;18.83;100.00;98464.75;4169372;28;20275;-49
2023/08/18 02:53:32;;;;;;;5.60;2.53;;;;;;;18.81;100.00;98472.53;4152393;28;20269;-55
2023/08/18 02:55:34;;;;;;;2.65;2.45;;;;;;;18.81;100.00;98469.78;4168711;28;20290;-50
2023/08/18 02:57:36;;;;;;;4.53;2.42;;;;;;;18.77;100.00;98464.00;4186188;28;20639;-49
2023/08/18 02:59:38;;;;;;;3.78;2.55;;;;;;;18.73;100.00;98462.97;4182505;28;20199;-51
2023/08/18 03:01:39;;;;;;;4.95;2.83;;;;;;;18.71;100.00;98459.69;4184943;28;20208;-53
2023/08/18 03:03:41;;;;;;;8.25;2.45;;;;;;;18.67;100.00;98463.38;4185002;28;20250;-49
2023/08/18 03:05:43;;;;;;;3.42;2.35;;;;;;;18.65;100.00;98460.09;4186427;28;20290;-48
2023/08/18 03:07:45;;;;;;;2.88;2.67;;;;;;;18.64;100.00;98464.00;4169877;28;20214;-48
2023/08/18 03:09:47;;;;;;;3.88;3.05;;;;;;;18.62;100.00;98466.22;4182154;28;20204;-48
2023/08/18 03:11:50;;;;;;;4.95;3.08;;;;;;;18.59;100.00;98458.53;4165468;28;20725;-48
2023/08/18 03:13:52;;;;;;;3.08;2.80;;;;;;;18.60;100.00;98471.25;4189716;28;20227;-50
2023/08/18 03:15:54;;;;;;;5.40;2.70;;;;;;;18.55;100.00;98465.78;4172647;28;20272;-48
2023/08/18 03:17:57;;;;;;;4.32;2.40;;;;;;;18.55;100.00;98466.63;4170464;28;20232;-48
2023/08/18 03:19:58;;;;;;;2.45;2.17;;;;;;;18.54;100.00;98470.53;4162037;28;20290;-49
2023/08/18 03:22:00;;;;;;;3.67;2.92;;;;;;;18.53;100.00;98468.84;4167997;28;20206;-50
2023/08/18 03:24:02;;;;;;;5.20;2.70;;;;;;;18.55;100.00;98474.09;4166713;28;20228;-48
2023/08/18 03:26:05;;;;;;;3.72;2.63;;;;;;;18.53;100.00;98476.34;4169905;28;20673;-48
2023/08/18 03:28:07;;;;;;;3.03;2.65;;;;;;;18.47;100.00;98469.25;4170165;28;20212;-50
2023/08/18 03:30:11;;;;;;;6.53;2.80;;;;;;;18.45;100.00;98472.31;4187866;28;20215;-50
2023/08/18 03:32:13;;;;;;;5.72;2.30;;;;;;;18.45;100.00;98471.50;4179490;28;20211;-48
2023/08/18 03:34:14;;;;;;;3.28;2.45;;;;;;;18.45;100.00;98460.44;4170376;28;20255;-49
2023/08/18 03:36:16;;;;;;;3.50;2.85;;;;;;;18.45;100.00;98460.44;4177051;28;20684;-48
2023/08/18 03:38:18;;;;;;;3.08;2.88;;;;;;;18.50;100.00;98455.63;4181148;28;21100;-48
2023/08/18 03:40:20;;;;;;;4.88;3.08;;;;;;;18.52;100.00;98460.88;4178980;28;20200;-48
2023/08/18 03:42:22;;;;;;;4.53;2.47;;;;;;;18.53;100.00;98462.50;4170843;28;20259;-49
2023/08/18 03:44:24;;;;;;;4.40;3.22;;;;;;;18.54;100.00;98464.16;4188897;28;20227;-48
2023/08/18 03:46:26;;;;;;;3.50;3.20;;;;;;;18.49;100.00;98467.81;4173084;28;20208;-49
2023/08/18 03:48:28;;;;;;;5.00;3.35;;;;;;;18.43;100.00;98466.25;4188278;28;20595;-50
2023/08/18 03:50:29;;;;;;;4.75;2.75;;;;;;;18.39;100.00;98462.44;4173227;28;20211;-48
2023/08/18 03:52:31;;;;;;;4.55;2.33;;;;;;;18.41;100.00;98464.91;4189504;28;20208;-48
2023/08/18 03:54:33;;;;;;;2.85;2.65;;;;;;;18.37;100.00;98472.16;4170602;28;20282;-48
2023/08/18 03:56:35;;;;;;;4.82;2.60;;;;;;;18.31;100.00;98468.66;4179473;28;20204;-48
2023/08/18 03:58:37;;;;;;;9.07;2.58;;;;;;;18.33;100.00;98469.19;4185919;28;20219;-49
2023/08/18 04:00:39;;;;;;;2.72;2.53;;;;;;;18.32;100.00;98473.06;4172889;28;20211;-50
2023/08/18 04:02:42;;;;;;;3.42;2.83;;;;;;;18.29;100.00;98467.28;4187414;28;20208;-49
2023/08/18 04:04:43;;;;;;;4.85;2.78;;;;;;;18.26;100.00;98463.16;4179544;28;20239;-48
2023/08/18 04:06:45;;;;;;;4.07;2.67;;;;;;;18.28;100.00;98460.09;4173760;28;20201;-48
2023/08/18 04:08:47;;;;;;;3.03;2.83;;;;;;;18.22;100.00;98461.28;4180797;28;20693;-48
2023/08/18 04:10:49;;;;;;;3.55;3.00;;;;;;;18.25;100.00;98466.25;4178348;28;20204;-48
2023/08/18 04:12:50;;;;;;;2.92;2.72;;;;;;;18.22;100.00;98461.28;4168579;28;20203;-51
2023/08/18 04:14:52;;;;;;;14.45;3.75;;;;;;;18.20;100.00;98464.41;4172527;28;20232;-48
2023/08/18 04:16:54;;;;;;;7.07;2.80;;;;;;;18.19;100.00;98467.44;4172640;28;20205;-50
2023/08/18 04:18:56;;;;;;;5.85;3.03;;;;;;;18.22;100.00;98473.22;4168478;28;20228;-48
2023/08/18 04:20:58;;;;;;;11.75;2.70;;;;;;;18.18;100.00;98465.81;4186276;28;20264;-49
2023/08/18 04:22:59;;;;;;;3.40;2.90;;;;;;;18.14;100.00;98470.28;4178291;28;20211;-50
2023/08/18 04:25:01;;;;;;;5.88;2.65;;;;;;;18.15;100.00;98471.94;4168611;28;20228;-52
2023/08/18 04:27:03;;;;;;;4.45;2.45;;;;;;;18.14;100.00;98470.28;4173297;28;20784;-50
2023/08/18 04:29:05;;;;;;;7.57;2.55;;;;;;;18.13;100.00;98474.19;4187581;28;20247;-49
2023/08/18 04:31:07;;;;;;;2.88;2.58;;;;;;;18.07;100.00;98483.69;4185497;28;20269;-49
2023/08/18 04:33:09;;;;;;;3.65;2.75;;;;;;;18.09;100.00;98478.66;4168465;28;20205;-49
2023/08/18 04:35:11;;;;;;;2.55;2.35;;;;;;;18.06;100.00;98474.56;4170556;28;20232;-48
2023/08/18 04:37:12;;;;;;;3.28;3.08;;;;;;;18.04;100.00;98481.53;4168217;28;20859;-48
2023/08/18 04:39:15;;;;;;;3.97;3.03;;;;;;;18.02;100.00;98478.22;4187115;28;20300;-49
2023/08/18 04:41:17;;;;;;;3.05;2.72;;;;;;;18.01;100.00;98484.88;4177509;28;20212;-49
2023/08/18 04:43:18;;;;;;;2.92;2.65;;;;;;;17.99;100.00;98482.41;4184834;28;20632;-48
2023/08/18 04:45:20;;;;;;;3.15;2.88;;;;;;;17.97;100.00;98492.13;4168095;28;20216;-50
2023/08/18 04:47:22;;;;;;;4.25;2.90;;;;;;;17.96;100.00;98493.25;4178842;28;20203;-48
2023/08/18 04:49:23;;;;;;;3.08;2.80;;;;;;;17.96;100.00;98493.25;4178915;28;20204;-48
2023/08/18 04:51:27;;;;;;;4.88;2.88;;;;;;;17.95;100.00;98502.69;4169884;28;20200;-48
2023/08/18 04:53:29;;;;;;;6.88;2.85;;;;;;;17.94;100.00;98506.59;4169531;28;20212;-50
2023/08/18 04:55:33;;;;;;;3.15;2.63;;;;;;;17.99;100.00;98514.84;4176175;28;20211;-49
2023/08/18 04:57:35;;;;;;;3.22;3.00;;;;;;;18.01;100.00;98507.88;4169849;28;20787;-50
2023/08/18 04:59:36;;;;;;;4.47;3.63;;;;;;;18.03;100.00;98515.88;4170047;28;20306;-48
2023/08/18 05:01:38;;;;;;;4.80;3.80;;;;;;;18.04;100.00;98509.22;4170805;28;20213;-50
2023/08/18 05:03:40;;;;;;;4.10;3.47;;;;;;;18.12;100.00;98511.31;4186128;28;20230;-49
2023/08/18 05:05:57;;;;;;;4.13;3.72;;;;;;;18.02;100.00;98508.69;4169801;28;20274;-48
2023/08/18 05:07:59;;;;;;;5.38;3.42;;;;;;;18.03;100.00;98513.94;4167110;28;20582;-48
2023/08/18 05:10:01;;;;;;;11.27;4.10;;;;;;;18.06;100.00;98504.22;4170402;28;20266;-49
2023/08/18 05:12:03;;;;;;;4.03;3.50;;;;;;;18.05;100.00;98505.34;4174856;28;20205;-48
2023/08/18 05:14:04;;;;;;;3.58;3.28;;;;;;;18.06;100.00;98507.78;4172495;28;20224;-49
2023/08/18 05:16:06;;;;;;;6.28;3.13;;;;;;;18.13;100.00;98507.44;4169016;28;20255;-48
2023/08/18 05:18:08;;;;;;;15.00;3.78;;;;;;;18.10;100.00;98505.25;4178274;28;20805;-48
2023/08/18 05:20:11;;;;;;;5.18;3.10;;;;;;;18.11;100.00;98498.59;4170318;28;20232;-49
2023/08/18 05:22:13;;;;;;;4.25;3.85;;;;;;;18.16;100.00;98504.03;4187312;28;20569;-48
2023/08/18 05:24:14;;;;;;;4.03;3.70;;;;;;;18.23;100.00;98493.41;4168544;28;20338;-48
2023/08/18 05:26:16;;;;;;;4.00;3.55;;;;;;;18.22;100.00;98500.09;4187321;28;20639;-50
2023/08/18 05:28:18;;;;;;;7.18;5.10;;;;;;;18.34;100.00;98498.56;4187981;28;20200;-49
2023/08/18 05:30:19;;;;;;;5.65;4.25;;;;;;;18.43;100.00;98507.00;4187256;28;20231;-48
2023/08/18 05:32:21;;;;;;;8.77;5.95;;;;;;;18.43;100.00;98507.81;4153109;28;20210;-48
2023/08/18 05:34:24;;;;;;;8.63;5.35;;;;;;;18.48;100.00;98504.16;4168385;28;20220;-51
2023/08/18 05:36:25;;;;;;;5.60;5.10;;;;;;;18.54;100.00;98508.50;4176536;28;20250;-48
2023/08/18 05:38:27;;;;;;;6.10;4.60;;;;;;;18.66;100.00;98509.66;4185534;28;20260;-48
2023/08/18 05:40:29;;;;;;;6.07;5.57;;;;;;;18.74;100.00;98502.63;4184704;28;20216;-48
2023/08/18 05:42:31;;;;;;;8.07;6.63;;;;;;;18.89;100.00;98505.13;4177639;28;20212;-50
2023/08/18 05:44:32;;;;;;;7.93;7.18;;;;;;;19.02;100.00;98509.88;4169352;28;20244;-51
2023/08/18 05:46:34;;;;;;;9.18;7.13;;;;;;;19.16;100.00;98511.56;4168606;28;20258;-50
2023/08/18 05:48:36;;;;;;;6.78;6.20;;;;;;;19.30;100.00;98511.59;4167521;28;20204;-54
2023/08/18 05:50:38;;;;;;;9.27;7.28;;;;;;;19.43;100.00;98510.81;4178675;28;20207;-52
2023/08/18 05:52:40;;;;;;;7.70;7.03;;;;;;;19.46;100.00;98515.75;4169175;28;20650;-49
2023/08/18 05:54:42;;;;;;;6.93;6.50;;;;;;;19.49;100.00;98509.56;4183033;28;20289;-49
2023/08/18 05:56:44;;;;;;;7.28;6.63;;;;;;;19.59;100.00;98521.31;4186101;28;20196;-50
2023/08/18 05:58:46;;;;;;;6.97;6.47;;;;;;;19.62;100.00;98522.63;4168940;28;20208;-51
2023/08/18 06:00:50;;;;;;;7.88;7.30;;;;;;;19.59;100.00;98520.50;4168567;28;20545;-50
2023/08/18 06:02:53;;;;;;;7.47;7.00;;;;;;;19.72;100.00;98530.78;4169724;28;20208;-49
2023/08/18 06:04:55;;;;;;;7.70;7.22;;;;;;;19.74;100.00;98528.50;4168688;28;20235;-48
2023/08/18 06:06:57;;;;;;;7.80;7.07;;;;;;;19.84;100.00;98522.75;4169267;28;20281;-48
2023/08/18 06:09:00;;;;;;;9.35;6.63;;;;;;;19.86;100.00;98534.38;4169108;28;20208;-48
2023/08/18 06:11:02;;;;;;;7.38;6.70;;;;;;;19.90;100.00;98532.63;4177737;28;20659;-50
2023/08/18 06:13:04;;;;;;;8.40;7.75;;;;;;;19.62;100.00;98525.41;4167019;28;20294;-50
2023/08/18 06:15:07;;;;;;;10.40;8.30;;;;;;;19.71;100.00;98523.59;4166311;28;20227;-49
2023/08/18 06:17:08;;;;;;;9.13;8.32;;;;;;;19.75;100.00;98521.81;4186416;28;20228;-49
2023/08/18 06:19:12;;;;;;;10.45;9.45;;;;;;;19.81;100.00;98528.91;4153330;28;20713;-49
2023/08/18 06:21:13;;;;;;;13.13;9.68;;;;;;;19.50;100.00;98533.44;4178334;28;20269;-49
2023/08/18 06:23:15;;;;;;;12.82;9.38;;;;;;;19.60;100.00;98538.78;4168480;28;20718;-49
2023/08/18 06:25:17;;;;;;;10.75;9.82;;;;;;;19.57;100.00;98536.66;4171157;28;20235;-49
2023/08/18 06:27:19;;;;;;;11.35;7.93;;;;;;;19.63;100.00;98532.63;4183427;28;20215;-49
2023/08/18 06:29:20;;;;;;;8.57;7.95;;;;;;;19.75;100.00;98535.72;4165735;28;20588;-53
2023/08/18 06:31:22;;;;;;;8.75;7.45;;;;;;;19.81;100.00;98534.47;4169232;28;20207;-48
2023/08/18 06:33:24;;;;;;;10.82;9.73;;;;;;;19.89;100.00;98542.06;4165706;28;20211;-48
2023/08/18 06:35:25;;;;;;;10.88;9.90;;;;;;;19.86;100.00;98537.16;4166703;28;20204;-49
2023/08/18 06:37:27;;;;;;;11.77;10.63;;;;;;;19.89;100.00;98537.34;4168030;28;20266;-49
2023/08/18 06:39:29;;;;;;;29.80;11.85;;;;;;;19.77;100.00;98544.56;4170587;28;20273;-54
2023/08/18 06:41:31;;;;;;;13.02;10.90;;;;;;;19.67;100.00;98541.97;4176999;28;20571;-48
2023/08/18 06:43:32;;;;;;;15.70;13.15;;;;;;;19.60;100.00;98549.91;4184563;28;20215;-48
2023/08/18 06:45:34;;;;;;;31.55;14.43;;;;;;;19.59;100.00;98554.63;4168485;28;20199;-48
2023/08/18 06:47:36;;;;;;;14.32;13.05;;;;;;;19.56;100.00;98552.47;4176472;28;20246;-48
2023/08/18 06:49:38;;;;;;;13.75;12.55;;;;;;;19.71;100.00;98540.25;4170698;28;20285;-50
2023/08/18 06:51:39;;;;;;;10.82;10.13;;;;;;;19.86;100.00;98545.50;4177153;28;20205;-51
2023/08/18 06:53:41;;;;;;;12.13;10.95;;;;;;;20.04;100.00;98539.00;4179713;28;20251;-49
2023/08/18 06:55:43;;;;;;;10.18;9.23;;;;;;;20.18;100.00;98550.94;4184381;28;20207;-48
2023/08/18 06:58:00;;;;;;;9.27;8.57;;;;;;;20.34;100.00;98543.91;4175047;28;20739;-50
2023/08/18 07:00:06;;;;;;;10.00;9.30;;;;;;;20.51;100.00;98549.66;4168899;28;20304;-54
2023/08/18 07:02:08;;;;;;;8.85;8.23;;;;;;;20.63;100.00;98547.94;4171196;28;20320;-48
2023/08/18 07:04:10;;;;;;;9.45;8.70;;;;;;;20.72;100.00;98546.03;4169279;28;20281;-51
2023/08/18 07:06:12;;;;;;;13.07;12.05;;;;;;;20.76;100.00;98544.28;4188843;28;20214;-48
2023/08/18 07:08:13;;;;;;;9.68;9.00;;;;;;;20.87;100.00;98547.66;4170269;28;20232;-51
2023/08/18 07:10:15;;;;;;;9.35;8.75;;;;;;;21.10;100.00;98549.34;4174927;28;20199;-49
2023/08/18 07:12:17;;;;;;;8.80;8.20;;;;;;;21.51;100.00;98541.56;4188760;28;20206;-49
2023/08/18 07:14:19;;;;;;;10.80;10.20;;;;;;;21.88;100.00;98543.88;4172300;28;20218;-49
2023/08/18 07:16:21;;;;;;;10.32;9.48;;;;;;;22.29;100.00;98549.88;4170746;28;20210;-52
2023/08/18 07:18:23;;;;;;;10.05;9.13;;;;;;;22.81;100.00;98546.03;4181612;28;20295;-49
2023/08/18 07:20:24;;;;;;;7.78;7.18;;;;;;;22.95;100.00;98555.88;4188084;28;20226;-49
2023/08/18 07:22:26;;;;;;;7.70;7.20;;;;;;;23.33;100.00;98545.69;4186430;28;20207;-50
2023/08/18 07:24:29;;;;;;;8.27;7.68;;;;;;;23.26;100.00;98550.97;4186773;28;20250;-49
2023/08/18 07:26:31;;;;;;;7.85;7.35;;;;;;;23.23;100.00;98556.41;4171207;28;20209;-48
2023/08/18 07:28:33;;;;;;;6.43;5.93;;;;;;;23.65;100.00;98558.25;4177918;28;20220;-48
2023/08/18 07:30:35;;;;;;;6.57;5.70;;;;;;;24.08;100.00;98551.38;4159136;28;20200;-51
2023/08/18 07:32:36;;;;;;;5.13;4.70;;;;;;;24.21;100.00;98551.09;4170743;28;20643;-48
2023/08/18 07:34:38;;;;;;;5.55;5.15;;;;;;;24.93;100.00;98557.22;4179781;28;20227;-49
2023/08/18 07:36:40;;;;;;;6.55;6.07;;;;;;;24.71;100.00;98562.34;4169573;28;20681;-50
2023/08/18 07:38:42;;;;;;;4.35;4.05;;;;;;;25.53;98.76;98565.91;4174018;28;20714;-52
2023/08/18 07:40:43;;;;;;;4.47;4.05;;;;;;;25.64;96.56;98558.69;4179512;28;20270;-49
2023/08/18 07:42:45;;;;;;;5.22;4.82;;;;;;;25.40;97.37;98567.03;4173013;28;20687;-49
2023/08/18 07:44:47;;;;;;;4.55;4.25;;;;;;;25.75;95.96;98562.69;4175180;28;20234;-48
2023/08/18 07:46:50;;;;;;;5.10;4.68;;;;;;;25.90;97.51;98564.84;4171396;28;20205;-49
2023/08/18 07:48:52;;;;;;;4.05;3.75;;;;;;;26.41;93.16;98555.75;4167618;28;20211;-52
2023/08/18 07:50:54;;;;;;;5.50;3.50;;;;;;;26.45;91.98;98559.47;4175342;28;20208;-48
2023/08/18 07:52:55;;;;;;;3.38;3.10;;;;;;;26.86;88.88;98564.00;4170965;28;20207;-49
2023/08/18 07:54:57;;;;;;;4.03;3.72;;;;;;;26.65;90.59;98557.75;4188577;28;20226;-48
2023/08/18 07:56:59;;;;;;;3.42;3.22;;;;;;;26.66;91.70;98565.78;4189802;28;20257;-48
2023/08/18 07:59:03;;;;;;;4.35;3.78;;;;;;;26.65;92.33;98563.38;4172503;28;20212;-52
2023/08/18 08:01:05;;;;;;;4.20;3.88;;;;;;;26.87;90.05;98560.81;4170072;28;20938;-50
2023/08/18 08:03:08;;;;;;;4.53;3.13;;;;;;;26.77;91.93;98561.34;4185667;28;20647;-48
2023/08/18 08:05:10;;;;;;;3.63;3.42;;;;;;;27.28;87.63;98574.56;4169749;28;20228;-49
2023/08/18 08:07:12;;;;;;;3.20;3.00;;;;;;;27.36;86.58;98562.34;4170860;28;20992;-48
2023/08/18 08:09:14;;;;;;;3.92;3.63;;;;;;;26.96;88.28;98569.97;4173458;28;20219;-49
2023/08/18 08:11:15;;;;;;;4.22;3.88;;;;;;;26.69;92.04;98559.50;4160784;28;20200;-48
2023/08/18 08:13:17;;;;;;;3.97;3.63;;;;;;;26.63;88.88;98565.69;4169475;28;20261;-50
2023/08/18 08:15:19;;;;;;;4.32;3.25;;;;;;;27.38;86.95;98571.22;4178257;28;20212;-48
2023/08/18 08:17:22;;;;;;;3.40;3.20;;;;;;;27.64;85.37;98568.75;4171301;28;20261;-49
2023/08/18 08:19:23;;;;;;;4.18;3.88;;;;;;;27.24;87.22;98570.00;4180664;28;20203;-51
2023/08/18 08:21:25;;;;;;;7.53;3.70;;;;;;;27.27;87.68;98570.09;4173925;28;20243;-49
2023/08/18 08:23:27;;;;;;;3.55;3.25;;;;;;;27.56;86.59;98578.19;4173243;28;20257;-48
2023/08/18 08:25:28;;;;;;;3.47;3.20;;;;;;;28.34;82.02;98570.66;4169349;28;20626;-49
2023/08/18 08:27:30;;;;;;;4.78;4.30;;;;;;;28.41;82.30;98559.59;4173213;28;20204;-49
2023/08/18 08:29:32;;;;;;;4.10;3.80;;;;;;;27.95;83.80;98562.38;4178068;28;20204;-51
2023/08/18 08:31:34;;;;;;;3.17;2.83;;;;;;;28.51;79.92;98553.38;4167913;28;20216;-49
2023/08/18 08:33:36;;;;;;;4.50;3.45;;;;;;;27.30;83.97;98557.31;4170140;28;20250;-50
2023/08/18 08:35:38;;;;;;;3.85;3.55;;;;;;;26.98;87.06;98561.19;4186550;28;20305;-48
2023/08/18 08:37:41;;;;;;;3.83;3.53;;;;;;;27.80;85.67;98555.56;4180134;28;20265;-51
2023/08/18 08:39:43;;;;;;;3.70;3.40;;;;;;;27.80;84.14;98555.56;4169841;28;20735;-49
2023/08/18 08:41:48;;;;;;;3.60;3.28;;;;;;;27.85;86.21;98558.09;4172367;28;20289;-48
2023/08/18 08:43:50;;;;;;;4.50;3.50;;;;;;;28.65;82.07;98553.72;4170761;28;20740;-49
2023/08/18 08:45:52;;;;;;;4.72;3.95;;;;;;;28.44;82.47;98561.66;4174483;28;20199;-49
2023/08/18 08:47:58;;;;;;;8.00;3.10;;;;;;;28.48;81.18;98554.13;4173505;28;20230;-48
2023/08/18 08:50:02;;;;;;;4.32;3.97;;;;;;;28.13;79.64;98553.19;4167198;28;20215;-49
2023/08/18 08:52:10;;;;;;;3.17;2.65;;;;;;;28.20;82.24;98549.75;4172223;28;20212;-49
2023/08/18 08:54:13;;;;;;;4.07;3.67;;;;;;;28.41;83.19;98559.59;4177064;28;20685;-49
2023/08/18 08:56:17;;;;;;;3.55;3.25;;;;;;;28.63;82.10;98556.09;4172524;28;20208;-51
2023/08/18 08:58:19;;;;;;;4.40;3.25;;;;;;;28.47;80.46;98546.88;4179230;28;20219;-50
2023/08/18 09:00:25;;;;;;;4.28;3.05;;;;;;;28.49;80.69;98550.13;4180939;28;20223;-50
2023/08/18 09:02:28;;;;;;;3.65;3.35;;;;;;;29.10;80.14;98553.13;4187539;28;20203;-48
2023/08/18 09:04:31;;;;;;;3.10;2.60;;;;;;;29.47;77.36;98546.69;4184626;28;20249;-49
2023/08/18 09:06:32;;;;;;;4.32;3.92;;;;;;;28.91;74.84;98542.63;4178607;28;20266;-49
2023/08/18 09:08:35;;;;;;;4.43;3.20;;;;;;;28.25;81.13;98544.66;4156620;28;20675;-48
2023/08/18 09:10:39;;;;;;;3.88;3.30;;;;;;;29.05;79.29;98542.19;4171656;28;20210;-48
2023/08/18 09:12:41;;;;;;;3.58;3.28;;;;;;;29.61;76.71;98537.72;4177370;28;20254;-48
2023/08/18 09:14:43;;;;;;;4.30;3.90;;;;;;;29.66;75.58;98541.03;4180236;28;20281;-48
2023/08/18 09:16:45;;;;;;;4.18;3.88;;;;;;;29.66;77.10;98543.84;4168921;28;20577;-48
2023/08/18 09:18:47;;;;;;;7.57;4.28;;;;;;;28.70;77.79;98522.44;4184530;28;20286;-49
2023/08/18 09:20:48;;;;;;;7.65;4.00;;;;;;;28.66;77.44;98538.44;4171313;28;20219;-50
2023/08/18 09:22:56;;;;;;;5.38;3.75;;;;;;;29.35;76.94;98544.03;4177854;28;20207;-51
2023/08/18 09:24:58;;;;;;;3.75;3.40;;;;;;;29.22;79.45;98539.72;4184384;28;20285;-47
2023/08/18 09:27:07;;;;;;;5.13;3.33;;;;;;;29.97;76.07;98540.81;4167686;28;20246;-49
2023/08/18 09:29:09;;;;;;;3.20;3.00;;;;;;;30.24;72.60;98541.72;4185659;28;20256;-50
2023/08/18 09:31:11;;;;;;;5.53;3.33;;;;;;;30.60;72.55;98539.09;4169477;28;20212;-48